createdAt,value
2019-05-19T00:00:32.708Z,27.70
2019-05-19T00:03:02.582Z,28.93
2019-05-19T00:05:32.502Z,32.20
2019-05-19T00:08:02.300Z,29.57
2019-05-19T00:10:32.105Z,30.67
2019-05-19T00:13:02.044Z,28.53
2019-05-19T00:15:31.817Z,27.07
2019-05-19T00:18:01.665Z,30.30
2019-05-19T00:20:31.500Z,28.53
2019-05-19T00:23:01.348Z,30.23
2019-05-19T00:25:31.238Z,30.50
2019-05-19T00:28:01.137Z,28.30
2019-05-19T00:30:31.007Z,33.17
2019-05-19T00:33:00.828Z,26.00
2019-05-19T00:35:30.656Z,25.40
2019-05-19T00:38:00.485Z,27.27
2019-05-19T00:40:30.173Z,30.30
2019-05-19T00:42:59.889Z,30.03
2019-05-19T00:45:29.763Z,31.77
2019-05-19T00:48:00.042Z,33.40
2019-05-19T00:50:30.237Z,28.70
2019-05-19T00:52:59.961Z,34.47
2019-05-19T00:55:30.797Z,32.63
2019-05-19T00:58:02.403Z,27.53
2019-05-19T01:00:32.205Z,26.80
2019-05-19T01:03:02.049Z,28.63
2019-05-19T01:05:31.891Z,32.70
2019-05-19T01:08:01.702Z,31.33
2019-05-19T01:10:31.475Z,30.13
2019-05-19T01:13:01.139Z,29.33
2019-05-19T01:15:30.857Z,24.10
2019-05-19T01:18:00.647Z,26.23
2019-05-19T01:20:30.439Z,31.03
2019-05-19T01:23:00.237Z,29.60
2019-05-19T01:25:30.013Z,35.20
2019-05-19T01:27:59.797Z,28.13
2019-05-19T01:30:29.508Z,27.17
2019-05-19T01:32:59.459Z,28.70
2019-05-19T01:35:29.234Z,28.13
2019-05-19T01:37:59.021Z,34.00
2019-05-19T01:40:28.798Z,27.63
2019-05-19T01:42:58.679Z,35.53
2019-05-19T01:45:28.541Z,31.23
2019-05-19T01:47:58.276Z,26.00
2019-05-19T01:50:28.061Z,22.57
2019-05-19T01:52:57.819Z,25.97
2019-05-19T01:55:27.517Z,27.33
2019-05-19T01:57:57.234Z,31.37
2019-05-19T02:00:27.122Z,28.30
2019-05-19T02:02:56.975Z,32.93
2019-05-19T02:05:26.799Z,27.17
2019-05-19T02:07:56.705Z,29.67
2019-05-19T02:10:26.487Z,29.07
2019-05-19T02:12:56.197Z,27.10
2019-05-19T02:15:25.985Z,28.20
2019-05-19T02:17:55.843Z,27.00
2019-05-19T02:20:33.199Z,33.83
2019-05-19T02:22:57.105Z,29.50
2019-05-19T02:25:26.914Z,24.03
2019-05-19T02:27:56.645Z,23.70
2019-05-19T02:30:26.525Z,23.70
2019-05-19T02:32:56.207Z,24.97
2019-05-19T02:35:26.039Z,21.27
2019-05-19T02:37:55.756Z,21.07
2019-05-19T02:40:25.534Z,31.50
2019-05-19T02:42:57.038Z,25.33
2019-05-19T02:45:29.458Z,37.07
2019-05-19T02:48:02.161Z,25.90
2019-05-19T02:50:50.832Z,27.50
2019-05-19T02:53:09.538Z,27.37
2019-05-19T02:55:41.288Z,25.90
2019-05-19T02:58:13.493Z,33.87
2019-05-19T03:00:44.087Z,28.33
2019-05-19T03:03:14.235Z,26.90
2019-05-19T03:05:44.032Z,29.73
2019-05-19T03:08:13.725Z,33.50
2019-05-19T03:10:43.569Z,25.17
2019-05-19T03:13:13.290Z,28.00
2019-05-19T03:15:43.007Z,29.90
2019-05-19T03:18:12.931Z,31.63
2019-05-19T03:20:42.705Z,20.37
2019-05-19T03:23:12.573Z,25.47
2019-05-19T03:25:44.180Z,27.73
2019-05-19T03:28:13.655Z,27.27
2019-05-19T03:30:55.092Z,29.20
2019-05-19T03:33:27.921Z,23.70
2019-05-19T03:35:57.736Z,22.80
2019-05-19T03:38:27.538Z,25.77
2019-05-19T03:40:57.324Z,24.80
2019-05-19T03:43:27.419Z,23.50
2019-05-19T03:45:57.151Z,28.90
2019-05-19T03:48:27.009Z,30.33
2019-05-19T03:50:56.897Z,25.60
2019-05-19T03:53:26.706Z,27.97
2019-05-19T03:55:56.467Z,26.27
2019-05-19T03:58:26.316Z,30.80
2019-05-19T04:00:56.120Z,21.43
2019-05-19T04:03:25.851Z,30.93
2019-05-19T04:05:55.678Z,26.80
2019-05-19T04:08:25.463Z,25.80
2019-05-19T04:10:55.559Z,24.53
2019-05-19T04:13:25.466Z,24.90
2019-05-19T04:15:55.322Z,23.17
2019-05-19T04:18:25.022Z,29.53
2019-05-19T04:20:54.856Z,29.57
2019-05-19T04:23:24.692Z,28.93
2019-05-19T04:25:54.499Z,23.70
2019-05-19T04:28:24.367Z,29.43
2019-05-19T04:30:54.183Z,25.87
2019-05-19T04:33:23.969Z,28.77
2019-05-19T04:35:57.299Z,27.57
2019-05-19T04:38:25.129Z,27.47
2019-05-19T04:40:55.021Z,29.20
2019-05-19T04:43:24.750Z,26.87
2019-05-19T04:45:54.438Z,28.90
2019-05-19T04:48:24.311Z,28.50
2019-05-19T04:54:35.336Z,30.33
2019-05-19T04:57:05.082Z,24.87
2019-05-19T04:59:34.755Z,27.77
2019-05-19T05:02:04.615Z,29.47
2019-05-19T05:04:34.449Z,28.60
2019-05-19T05:07:04.230Z,30.67
2019-05-19T05:09:34.071Z,27.20
2019-05-19T05:12:03.736Z,26.53
2019-05-19T05:14:34.393Z,29.30
2019-05-19T05:17:04.147Z,28.83
2019-05-19T05:19:33.907Z,28.30
2019-05-19T05:22:03.693Z,31.57
2019-05-19T05:24:33.406Z,30.47
2019-05-19T05:27:03.169Z,31.20
2019-05-19T05:29:33.018Z,28.77
2019-05-19T05:32:02.943Z,27.07
2019-05-19T05:34:32.725Z,30.10
2019-05-19T05:37:02.623Z,25.63
2019-05-19T05:39:32.333Z,28.07
2019-05-19T05:42:10.708Z,29.60
2019-05-19T05:44:40.506Z,28.07
2019-05-19T05:47:10.381Z,28.10
2019-05-19T05:49:40.075Z,29.80
2019-05-19T05:52:10.008Z,30.10
2019-05-19T05:54:39.754Z,28.10
2019-05-19T05:57:09.505Z,27.20
2019-05-19T05:59:39.267Z,27.67
2019-05-19T06:02:09.062Z,29.93
2019-05-19T06:04:38.891Z,26.90
2019-05-19T06:07:08.637Z,30.43
2019-05-19T06:09:38.419Z,29.93
2019-05-19T06:12:08.071Z,31.37
2019-05-19T06:14:37.844Z,25.40
2019-05-19T06:17:07.555Z,30.60
2019-05-19T06:19:37.301Z,27.70
2019-05-19T06:22:07.158Z,27.90
2019-05-19T06:24:36.843Z,32.87
2019-05-19T06:27:06.590Z,27.73
2019-05-19T06:29:36.314Z,30.70
2019-05-19T06:32:16.487Z,28.97
2019-05-19T06:34:46.249Z,27.90
2019-05-19T06:37:15.981Z,27.77
2019-05-19T06:44:07.469Z,27.07
2019-05-19T06:46:37.257Z,24.80
2019-05-19T06:49:07.036Z,24.47
2019-05-19T06:51:36.831Z,31.13
2019-05-19T06:54:06.653Z,29.50
2019-05-19T06:56:36.441Z,30.03
2019-05-19T06:59:06.306Z,28.43
2019-05-19T07:01:35.986Z,29.73
2019-05-19T07:04:05.779Z,29.83
2019-05-19T07:06:35.667Z,28.57
2019-05-19T07:09:06.935Z,30.90
2019-05-19T07:11:36.692Z,31.17
2019-05-19T07:14:06.857Z,23.87
2019-05-19T07:16:36.775Z,24.47
2019-05-19T07:22:24.139Z,24.93
2019-05-19T07:24:53.901Z,41.67
2019-05-19T07:27:23.596Z,22.17
2019-05-19T07:29:53.514Z,29.27
2019-05-19T07:32:23.292Z,22.10
2019-05-19T07:34:53.128Z,25.67
2019-05-19T07:37:22.937Z,25.40
2019-05-19T07:39:52.788Z,26.27
2019-05-19T07:42:22.580Z,28.20
2019-05-19T07:44:52.449Z,26.73
2019-05-19T07:47:22.250Z,26.00
2019-05-19T07:53:24.414Z,25.00
2019-05-19T07:55:54.220Z,21.93
2019-05-19T07:58:24.183Z,23.60
2019-05-19T08:00:53.858Z,25.70
2019-05-19T08:03:23.720Z,29.10
2019-05-19T08:05:53.414Z,22.73
2019-05-19T08:08:23.134Z,25.33
2019-05-19T08:10:52.910Z,23.80
2019-05-19T08:13:22.774Z,25.90
2019-05-19T08:15:52.616Z,24.20
2019-05-19T08:18:22.380Z,23.03
2019-05-19T08:20:52.161Z,25.83
2019-05-19T08:23:21.873Z,21.33
2019-05-19T08:25:54.296Z,22.00
2019-05-19T08:28:24.178Z,24.93
2019-05-19T08:30:53.989Z,20.70
2019-05-19T08:33:23.836Z,24.57
2019-05-19T08:35:53.599Z,25.07
2019-05-19T08:38:23.342Z,23.60
2019-05-19T08:40:53.263Z,23.40
2019-05-19T08:43:23.077Z,24.43
2019-05-19T08:45:52.857Z,25.00
2019-05-19T08:48:22.731Z,21.43
2019-05-19T08:50:52.479Z,23.07
2019-05-19T08:53:22.406Z,22.57
2019-05-19T08:55:52.071Z,21.90
2019-05-19T08:58:21.840Z,22.43
2019-05-19T09:00:51.529Z,19.23
2019-05-19T09:03:21.352Z,19.57
2019-05-19T09:05:51.169Z,19.87
2019-05-19T09:08:20.913Z,18.23
2019-05-19T09:10:50.886Z,19.77
2019-05-19T09:13:20.641Z,19.00
2019-05-19T09:15:50.362Z,19.67
2019-05-19T09:18:20.111Z,20.90
2019-05-19T09:20:49.842Z,20.30
2019-05-19T09:23:19.529Z,20.00
2019-05-19T09:25:49.285Z,20.30
2019-05-19T09:28:19.115Z,21.80
2019-05-19T09:30:48.929Z,18.60
2019-05-19T09:33:19.544Z,21.30
2019-05-19T09:35:49.302Z,20.03
2019-05-19T09:38:18.973Z,20.47
2019-05-19T09:40:48.756Z,16.20
2019-05-19T09:43:18.449Z,19.97
2019-05-19T09:45:48.184Z,19.27
2019-05-19T09:48:17.988Z,18.80
2019-05-19T09:50:47.839Z,20.93
2019-05-19T09:53:17.613Z,19.10
2019-05-19T09:55:47.336Z,19.93
2019-05-19T09:58:20.045Z,21.00
2019-05-19T10:00:48.555Z,22.07
2019-05-19T10:03:19.766Z,17.63
2019-05-19T10:05:49.881Z,20.93
2019-05-19T10:08:25.219Z,20.90
2019-05-19T10:11:29.082Z,18.00
2019-05-19T10:13:58.837Z,17.03
2019-05-19T10:16:28.626Z,17.70
2019-05-19T10:18:58.386Z,16.00
2019-05-19T10:21:28.204Z,16.13
2019-05-19T10:23:58.031Z,17.33
2019-05-19T10:26:27.745Z,15.07
2019-05-19T10:28:57.473Z,15.03
2019-05-19T10:31:27.258Z,14.87
2019-05-19T10:33:57.148Z,17.20
2019-05-19T10:36:27.085Z,12.80
2019-05-19T10:38:56.913Z,15.43
2019-05-19T10:41:26.721Z,14.77
2019-05-19T10:44:00.862Z,14.00
2019-05-19T10:46:31.017Z,14.80
2019-05-19T10:49:00.820Z,15.30
2019-05-19T10:51:30.573Z,13.03
2019-05-19T10:54:00.416Z,15.97
2019-05-19T10:56:30.245Z,14.67
2019-05-19T10:59:00.128Z,14.23
2019-05-19T11:01:29.864Z,14.73
2019-05-19T11:03:59.676Z,14.80
2019-05-19T11:06:29.416Z,14.07
2019-05-19T11:08:59.281Z,12.83
2019-05-19T11:11:29.077Z,13.57
2019-05-19T11:13:58.907Z,13.13
2019-05-19T11:16:28.659Z,11.87
2019-05-19T11:18:58.395Z,13.00
2019-05-19T11:21:28.152Z,11.83
2019-05-19T11:23:58.609Z,10.17
2019-05-19T11:26:28.392Z,12.20
2019-05-19T11:28:58.160Z,8.90
2019-05-19T11:31:27.859Z,9.13
2019-05-19T11:33:57.654Z,8.83
2019-05-19T11:36:27.370Z,7.93
2019-05-19T11:38:57.203Z,9.43
2019-05-19T11:41:27.053Z,8.63
2019-05-19T11:43:56.825Z,9.50
2019-05-19T11:46:26.635Z,11.23
2019-05-19T11:48:56.391Z,9.77
2019-05-19T11:51:26.227Z,10.77
2019-05-19T11:53:56.020Z,12.10
2019-05-19T11:56:25.719Z,10.37
2019-05-19T11:58:55.529Z,11.47
2019-05-19T12:01:25.308Z,10.97
2019-05-19T12:03:55.597Z,10.23
2019-05-19T12:06:38.243Z,10.83
2019-05-19T12:08:56.956Z,11.63
2019-05-19T12:11:26.762Z,10.47
2019-05-19T12:13:56.614Z,12.03
2019-05-19T12:16:26.380Z,10.73
2019-05-19T12:18:57.578Z,9.93
2019-05-19T12:21:27.594Z,10.50
2019-05-19T12:23:57.356Z,10.50
2019-05-19T12:26:27.016Z,10.07
2019-05-19T12:28:56.775Z,9.77
2019-05-19T12:31:26.527Z,8.17
2019-05-19T12:33:56.336Z,10.40
2019-05-19T12:36:26.113Z,10.20
2019-05-19T12:38:55.883Z,9.27
2019-05-19T12:41:25.594Z,9.90
2019-05-19T12:43:55.340Z,10.40
2019-05-19T12:46:25.074Z,9.60
2019-05-19T12:48:54.792Z,8.37
2019-05-19T12:51:26.937Z,9.00
2019-05-19T12:53:56.713Z,8.63
2019-05-19T12:56:38.772Z,8.47
2019-05-19T12:58:58.357Z,8.10
2019-05-19T13:01:28.411Z,6.93
2019-05-19T13:03:58.210Z,8.40
2019-05-19T13:06:27.979Z,8.63
2019-05-19T13:08:57.722Z,7.83
2019-05-19T13:11:27.506Z,9.17
2019-05-19T13:13:57.180Z,8.23
2019-05-19T13:16:26.968Z,9.63
2019-05-19T13:18:56.774Z,8.43
2019-05-19T13:21:26.430Z,8.40
2019-05-19T13:23:56.165Z,9.47
2019-05-19T13:26:25.927Z,10.40
2019-05-19T13:28:55.710Z,9.40
2019-05-19T13:31:25.513Z,9.27
2019-05-19T13:33:55.179Z,8.93
2019-05-19T13:36:24.993Z,9.93
2019-05-19T13:38:54.636Z,11.03
2019-05-19T13:41:24.534Z,10.50
2019-05-19T13:43:54.358Z,9.87
2019-05-19T13:46:24.056Z,10.50
2019-05-19T13:48:53.886Z,9.87
2019-05-19T13:51:23.831Z,10.03
2019-05-19T13:53:53.634Z,10.37
2019-05-19T13:56:23.643Z,10.63
2019-05-19T13:58:53.478Z,11.30
2019-05-19T14:01:28.627Z,10.23
2019-05-19T14:03:54.845Z,9.83
2019-05-19T14:06:24.711Z,10.47
2019-05-19T14:08:54.744Z,15.13
2019-05-19T14:11:24.656Z,17.37
2019-05-19T14:13:54.364Z,18.97
2019-05-19T14:16:26.512Z,18.83
2019-05-19T14:19:00.963Z,18.63
2019-05-19T14:21:30.789Z,15.93
2019-05-19T14:24:00.605Z,18.07
2019-05-19T14:26:33.883Z,17.80
2019-05-19T14:29:03.800Z,19.27
2019-05-19T14:31:36.548Z,16.80
2019-05-19T14:34:09.667Z,15.50
2019-05-19T14:36:42.745Z,16.07
2019-05-19T14:39:12.521Z,14.77
2019-05-19T14:41:48.050Z,15.43
2019-05-19T14:44:17.799Z,16.20
2019-05-19T14:46:47.615Z,16.10
2019-05-19T14:49:17.331Z,14.27
2019-05-19T14:51:47.255Z,15.00
2019-05-19T14:54:17.037Z,15.50
2019-05-19T14:56:58.925Z,16.60
2019-05-19T14:59:28.835Z,13.83
2019-05-19T15:05:39.758Z,14.33
2019-05-19T15:08:09.609Z,13.23
2019-05-19T15:10:39.416Z,13.10
2019-05-19T15:13:09.250Z,12.40
2019-05-19T15:15:42.861Z,11.97
2019-05-19T15:18:13.424Z,13.07
2019-05-19T15:20:43.388Z,13.73
2019-05-19T15:23:13.243Z,14.73
2019-05-19T15:25:42.996Z,13.00
2019-05-19T15:28:12.798Z,16.00
2019-05-19T15:30:42.615Z,14.70
2019-05-19T15:33:12.551Z,16.63
2019-05-19T15:43:32.367Z,20.03
2019-05-19T15:46:02.176Z,20.17
2019-05-19T15:48:31.964Z,18.60
2019-05-19T15:51:01.669Z,18.87
2019-05-19T15:53:31.543Z,19.33
2019-05-19T15:56:01.284Z,20.10
2019-05-19T15:58:31.075Z,18.63
2019-05-19T16:01:00.859Z,16.90
2019-05-19T16:03:30.642Z,16.13
2019-05-19T16:06:00.375Z,18.30
2019-05-19T16:08:30.109Z,18.57
2019-05-19T16:10:59.891Z,17.40
2019-05-19T16:13:29.634Z,18.03
2019-05-19T16:16:01.155Z,18.20
2019-05-19T16:18:30.824Z,17.77
2019-05-19T16:21:00.537Z,18.77
2019-05-19T16:23:30.535Z,18.80
2019-05-19T16:26:04.171Z,18.43
2019-05-19T16:28:33.965Z,19.90
2019-05-19T16:31:03.932Z,19.03
2019-05-19T16:33:33.866Z,19.33
2019-05-19T16:36:03.644Z,19.60
2019-05-19T16:38:33.543Z,20.57
2019-05-19T16:41:03.324Z,21.50
2019-05-19T16:43:33.053Z,19.20
2019-05-19T16:46:02.718Z,20.03
2019-05-19T16:48:32.479Z,22.07
2019-05-19T16:51:02.205Z,14.07
2019-05-19T16:53:31.984Z,7.77
2019-05-19T16:56:01.771Z,7.17
2019-05-19T16:58:44.368Z,7.40
2019-05-19T17:01:04.653Z,6.57
2019-05-19T17:03:34.473Z,5.80
2019-05-19T17:06:04.236Z,6.10
2019-05-19T17:08:34.042Z,7.70
2019-05-19T17:11:17.547Z,4.43
2019-05-19T17:13:35.311Z,6.80
2019-05-19T17:16:05.200Z,5.30
2019-05-19T17:18:35.162Z,6.20
2019-05-19T17:21:04.905Z,6.63
2019-05-19T17:23:34.867Z,7.27
2019-05-19T17:26:04.998Z,6.77
2019-05-19T17:28:34.795Z,8.70
2019-05-19T17:31:07.471Z,7.47
2019-05-19T17:33:35.992Z,9.13
2019-05-19T17:36:05.910Z,5.73
2019-05-19T17:38:35.718Z,6.10
2019-05-19T17:41:05.894Z,5.73
2019-05-19T17:43:35.714Z,6.83
2019-05-19T17:46:08.718Z,8.60
2019-05-19T17:48:38.373Z,9.73
2019-05-19T17:51:08.168Z,9.40
2019-05-19T17:53:38.016Z,8.63
2019-05-19T17:56:07.767Z,8.07
2019-05-19T17:58:38.317Z,9.13
2019-05-19T18:01:08.069Z,8.27
2019-05-19T18:03:39.475Z,7.87
2019-05-19T18:13:14.433Z,8.40
2019-05-19T18:15:44.127Z,7.10
2019-05-19T18:18:13.878Z,7.07
2019-05-19T18:20:46.559Z,8.93
2019-05-19T18:23:15.037Z,7.07
2019-05-19T18:25:44.825Z,9.70
2019-05-19T18:28:14.614Z,8.87
2019-05-19T18:30:44.454Z,7.20
2019-05-19T18:33:14.419Z,6.90
2019-05-19T18:35:44.302Z,8.80
2019-05-19T18:41:46.655Z,8.57
2019-05-19T18:44:16.391Z,7.47
2019-05-19T18:46:46.558Z,9.97
2019-05-19T18:49:16.757Z,9.10
2019-05-19T18:51:46.625Z,9.30
2019-05-19T18:54:16.489Z,9.33
2019-05-19T18:56:46.456Z,8.63
2019-05-19T18:59:16.214Z,10.27
2019-05-19T19:01:46.304Z,10.53
2019-05-19T19:04:16.128Z,10.87
2019-05-19T19:06:46.021Z,11.30
2019-05-19T19:09:16.028Z,11.87
2019-05-19T19:11:45.906Z,13.17
2019-05-19T19:14:15.728Z,13.07
2019-05-19T19:16:45.513Z,15.00
2019-05-19T19:19:15.283Z,14.53
2019-05-19T19:30:03.477Z,13.80
2019-05-19T19:32:27.733Z,13.00
2019-05-19T19:34:57.580Z,11.93
2019-05-19T19:37:27.414Z,12.50
2019-05-19T19:39:57.151Z,11.77
2019-05-19T19:42:27.287Z,12.80
2019-05-19T19:44:57.536Z,11.20
2019-05-19T19:47:27.321Z,9.93
2019-05-19T19:49:57.066Z,12.70
2019-05-19T19:52:26.835Z,10.83
2019-05-19T19:54:56.605Z,13.33
2019-05-19T19:57:26.471Z,11.83
2019-05-19T19:59:56.374Z,13.23
2019-05-19T20:02:26.299Z,13.97
2019-05-19T20:04:56.040Z,14.70
2019-05-19T20:07:25.833Z,16.57
2019-05-19T20:09:55.779Z,12.70
2019-05-19T20:12:25.655Z,11.67
2019-05-19T20:14:55.499Z,11.90
2019-05-19T20:17:25.397Z,10.40
2019-05-19T20:19:55.163Z,13.07
2019-05-19T20:22:24.957Z,11.53
2019-05-19T20:24:54.744Z,10.00
2019-05-19T20:27:24.644Z,10.20
2019-05-19T20:29:54.509Z,11.43
2019-05-19T20:32:24.296Z,13.33
2019-05-19T20:34:54.207Z,10.00
2019-05-19T20:37:27.184Z,12.20
2019-05-19T20:39:56.943Z,12.10
2019-05-19T20:43:32.301Z,12.77
2019-05-19T20:45:46.753Z,11.00
2019-05-19T20:48:16.522Z,10.73
2019-05-19T20:50:50.311Z,12.20
2019-05-19T20:53:20.003Z,9.53
2019-05-19T20:55:49.844Z,12.43
2019-05-19T20:58:20.595Z,11.73
2019-05-19T21:00:51.931Z,13.33
2019-05-19T21:03:22.119Z,11.73
2019-05-19T21:05:51.897Z,10.47
2019-05-19T21:15:26.820Z,9.80
2019-05-19T21:17:56.729Z,9.47
2019-05-19T21:20:26.465Z,11.20
2019-05-19T21:22:56.299Z,10.33
2019-05-19T21:25:26.043Z,9.13
2019-05-19T21:27:55.798Z,9.77
2019-05-19T21:30:25.586Z,9.60
2019-05-19T21:32:55.374Z,9.27
2019-05-19T21:35:25.262Z,8.87
2019-05-19T21:41:57.185Z,8.83
2019-05-19T21:44:26.943Z,9.00
2019-05-19T21:46:56.692Z,8.53
2019-05-19T21:49:26.379Z,9.20
2019-05-19T21:51:56.127Z,8.70
2019-05-19T21:54:25.797Z,9.63
2019-05-19T21:56:55.534Z,13.23
2019-05-19T21:59:25.391Z,8.33
2019-05-19T22:01:55.141Z,10.17
2019-05-19T22:04:24.907Z,10.37
2019-05-19T22:07:02.376Z,11.10
2019-05-19T22:09:32.072Z,9.50
2019-05-19T22:12:01.948Z,10.33
2019-05-19T22:14:31.801Z,9.50
2019-05-19T22:17:01.580Z,9.53
2019-05-19T22:19:31.274Z,8.90
2019-05-19T22:22:00.923Z,12.60
2019-05-19T22:24:30.686Z,8.30
2019-05-19T22:27:00.425Z,10.23
2019-05-19T22:29:30.118Z,11.83
2019-05-19T22:32:00.323Z,11.10
2019-05-19T22:34:30.132Z,9.67
2019-05-19T22:36:59.812Z,8.90
2019-05-19T22:39:29.580Z,10.30
2019-05-19T22:41:59.326Z,10.60
2019-05-19T22:44:28.997Z,8.87
2019-05-19T22:46:58.759Z,10.30
2019-05-19T22:49:28.538Z,11.60
2019-05-19T22:51:58.339Z,11.23
2019-05-19T22:54:28.014Z,12.17
2019-05-19T22:56:57.780Z,11.97
2019-05-19T22:59:27.514Z,13.20
2019-05-19T23:01:57.178Z,14.27
2019-05-19T23:04:26.951Z,13.17
2019-05-19T23:06:56.873Z,16.43
2019-05-19T23:09:26.710Z,15.50
2019-05-19T23:11:56.586Z,13.83
2019-05-19T23:14:26.464Z,14.13
2019-05-19T23:16:56.341Z,17.03
2019-05-19T23:19:26.132Z,14.43
2019-05-19T23:21:55.970Z,13.00
2019-05-19T23:24:25.684Z,14.47
2019-05-19T23:26:55.453Z,12.43
2019-05-19T23:29:25.364Z,14.77
2019-05-19T23:32:06.749Z,16.23
2019-05-19T23:34:26.574Z,15.57
2019-05-19T23:36:56.494Z,14.57
2019-05-19T23:39:26.371Z,17.90
2019-05-19T23:41:56.158Z,17.50
2019-05-19T23:44:26.074Z,16.73
2019-05-19T23:46:55.904Z,19.20
2019-05-19T23:49:25.635Z,19.23
2019-05-19T23:51:55.448Z,18.90
2019-05-19T23:54:25.261Z,20.03
2019-05-19T23:56:54.927Z,19.40
2019-05-19T23:59:24.840Z,19.43
